createdAt,value
2019-02-05T00:00:43.086Z,101580.48
2019-02-05T00:03:14.320Z,101571.74
2019-02-05T00:05:43.152Z,101579.15
2019-02-05T00:08:12.193Z,101589.19
2019-02-05T00:10:40.978Z,101583.08
2019-02-05T00:13:09.794Z,101587.44
2019-02-05T00:15:39.621Z,101585.27
2019-02-05T00:18:08.383Z,101579.14
2019-02-05T00:20:37.130Z,101579.61
2019-02-05T00:23:05.988Z,101578.28
2019-02-05T00:25:36.212Z,101573.48
2019-02-05T00:28:07.046Z,101579.61
2019-02-05T00:30:36.040Z,101591.83
2019-02-05T00:33:04.975Z,101594.01
2019-02-05T00:35:33.807Z,101591.39
2019-02-05T00:38:02.856Z,101590.08
2019-02-05T00:40:31.644Z,101588.34
2019-02-05T00:43:03.314Z,101580.91
2019-02-05T00:45:33.409Z,101576.98
2019-02-05T00:48:02.905Z,101565.66
2019-02-05T00:50:31.948Z,101576.11
2019-02-05T00:53:01.111Z,101583.52
2019-02-05T00:55:29.832Z,101582.23
2019-02-05T00:57:58.975Z,101584.40
2019-02-05T01:00:29.097Z,101583.54
2019-02-05T01:02:58.104Z,101574.80
2019-02-05T01:05:26.870Z,101567.41
2019-02-05T01:07:55.654Z,101577.44
2019-02-05T01:10:25.134Z,101575.68
2019-02-05T01:12:54.174Z,101569.14
2019-02-05T01:15:25.857Z,101574.80
2019-02-05T01:17:55.120Z,101574.82
2019-02-05T01:20:24.979Z,101578.30
2019-02-05T01:22:54.055Z,101580.05
2019-02-05T01:25:22.877Z,101581.77
2019-02-05T01:27:52.351Z,101578.73
2019-02-05T01:30:24.895Z,101580.46
2019-02-05T01:32:55.342Z,101592.69
2019-02-05T01:35:24.184Z,101597.05
2019-02-05T01:37:53.029Z,101594.42
2019-02-05T01:40:24.547Z,101596.59
2019-02-05T01:42:54.937Z,101605.77
2019-02-05T01:45:24.017Z,101599.66
2019-02-05T01:47:53.049Z,101596.60
2019-02-05T01:50:23.799Z,101595.75
2019-02-05T01:52:53.262Z,101594.87
2019-02-05T01:55:22.424Z,101595.75
2019-02-05T01:57:51.208Z,101599.23
2019-02-05T02:00:25.108Z,101608.84
2019-02-05T02:02:53.975Z,101604.90
2019-02-05T02:05:23.001Z,101600.09
2019-02-05T02:07:53.009Z,101597.47
2019-02-05T02:10:23.541Z,101611.00
2019-02-05T02:12:52.354Z,101605.77
2019-02-05T02:15:21.381Z,101596.17
2019-02-05T02:17:50.240Z,101592.69
2019-02-05T02:20:19.327Z,101583.52
2019-02-05T02:22:50.266Z,101593.56
2019-02-05T02:25:20.124Z,101598.78
2019-02-05T02:27:49.583Z,101599.65
2019-02-05T02:30:20.736Z,101593.11
2019-02-05T02:32:49.690Z,101599.24
2019-02-05T02:35:18.445Z,101605.76
2019-02-05T02:37:47.176Z,101614.06
2019-02-05T02:40:16.041Z,101616.66
2019-02-05T02:42:46.008Z,101617.09
2019-02-05T02:45:14.882Z,101616.23
2019-02-05T02:47:43.666Z,101614.48
2019-02-05T02:50:14.095Z,101617.11
2019-02-05T02:52:42.805Z,101619.72
2019-02-05T02:55:11.691Z,101617.97
2019-02-05T02:57:40.427Z,101620.14
2019-02-05T03:00:14.220Z,101621.47
2019-02-05T03:02:43.119Z,101618.84
2019-02-05T03:05:13.419Z,101625.80
2019-02-05T03:07:42.287Z,101621.91
2019-02-05T03:10:16.845Z,101628.45
2019-02-05T03:12:45.572Z,101617.52
2019-02-05T03:15:14.369Z,101617.52
2019-02-05T03:17:43.102Z,101620.11
2019-02-05T03:20:12.016Z,101615.29
2019-02-05T03:22:40.807Z,101622.23
2019-02-05T03:25:10.502Z,101631.39
2019-02-05T03:27:41.621Z,101630.05
2019-02-05T03:30:13.783Z,101632.24
2019-02-05T03:32:42.553Z,101636.98
2019-02-05T03:35:11.573Z,101642.20
2019-02-05T03:37:41.140Z,101638.73
2019-02-05T03:40:32.933Z,101643.97
2019-02-05T03:43:02.097Z,101650.98
2019-02-05T03:45:30.965Z,101647.88
2019-02-05T03:48:00.399Z,101646.57
2019-02-05T03:50:29.300Z,101647.83
2019-02-05T03:53:00.797Z,101635.22
2019-02-05T03:56:04.968Z,101633.91
2019-02-05T03:58:56.812Z,101627.38
2019-02-05T04:01:48.941Z,101637.37
2019-02-05T04:05:07.857Z,101631.75
2019-02-05T04:08:08.717Z,101624.77
2019-02-05T04:11:01.962Z,101628.28
2019-02-05T04:13:56.873Z,101634.81
2019-02-05T04:17:11.983Z,101631.75
2019-02-05T04:20:10.211Z,101623.02
2019-02-05T04:22:47.717Z,101619.95
2019-02-05T04:25:52.656Z,101630.80
2019-02-05T04:28:47.073Z,101630.39
2019-02-05T04:31:49.931Z,101626.47
2019-02-05T04:35:01.645Z,101635.17
2019-02-05T04:38:00.389Z,101626.87
2019-02-05T04:40:59.100Z,101628.12
2019-02-05T04:44:15.438Z,101641.23
2019-02-05T04:47:14.610Z,101639.95
2019-02-05T04:50:05.416Z,101631.65
2019-02-05T04:52:56.732Z,101633.85
2019-02-05T04:56:09.091Z,101623.81
2019-02-05T04:58:59.999Z,101632.14
2019-02-05T05:02:10.357Z,101620.80
2019-02-05T05:05:05.586Z,101620.44
2019-02-05T05:08:16.490Z,101606.88
2019-02-05T05:10:45.485Z,101615.17
2019-02-05T05:13:15.004Z,101617.78
2019-02-05T05:15:43.833Z,101616.48
2019-02-05T05:18:15.485Z,101621.75
2019-02-05T05:20:43.282Z,101627.38
2019-02-05T05:23:12.922Z,101626.08
2019-02-05T05:25:41.707Z,101626.52
2019-02-05T05:28:10.640Z,101626.94
2019-02-05T05:30:39.479Z,101627.38
2019-02-05T05:33:08.245Z,101626.92
2019-02-05T05:35:44.108Z,101632.56
2019-02-05T05:38:07.495Z,101642.16
2019-02-05T05:40:36.619Z,101639.58
2019-02-05T05:43:05.514Z,101638.28
2019-02-05T05:45:34.251Z,101635.67
2019-02-05T05:48:03.010Z,101650.49
2019-02-05T05:50:32.216Z,101650.91
2019-02-05T05:53:01.060Z,101647.44
2019-02-05T05:55:29.789Z,101652.25
2019-02-05T05:57:58.532Z,101654.42
2019-02-05T06:00:27.378Z,101659.23
2019-02-05T06:02:56.226Z,101658.79
2019-02-05T06:05:25.198Z,101656.22
2019-02-05T06:07:54.228Z,101650.54
2019-02-05T06:10:22.930Z,101659.70
2019-02-05T06:12:51.795Z,101662.80
2019-02-05T06:15:20.509Z,101657.98
2019-02-05T06:17:49.350Z,101660.14
2019-02-05T06:20:18.472Z,101666.72
2019-02-05T06:22:47.316Z,101672.36
2019-02-05T06:25:16.169Z,101675.88
2019-02-05T06:27:44.939Z,101681.10
2019-02-05T06:30:14.828Z,101671.95
2019-02-05T06:32:43.728Z,101676.73
2019-02-05T06:35:12.671Z,101675.88
2019-02-05T06:37:44.467Z,101684.16
2019-02-05T06:40:15.197Z,101688.53
2019-02-05T06:42:44.102Z,101687.67
2019-02-05T06:45:13.804Z,101698.13
2019-02-05T06:47:42.670Z,101696.38
2019-02-05T06:50:11.783Z,101703.78
2019-02-05T06:52:40.691Z,101710.31
2019-02-05T06:55:10.061Z,101708.14
2019-02-05T06:57:38.895Z,101714.23
2019-02-05T07:00:14.106Z,101716.45
2019-02-05T07:02:42.853Z,101717.75
2019-02-05T07:05:11.735Z,101720.37
2019-02-05T07:07:40.580Z,101720.81
2019-02-05T07:10:12.599Z,101726.05
2019-02-05T07:12:41.384Z,101734.34
2019-02-05T07:15:10.391Z,101740.84
2019-02-05T07:17:49.256Z,101738.23
2019-02-05T07:20:10.308Z,101734.30
2019-02-05T07:22:39.152Z,101744.36
2019-02-05T07:25:10.050Z,101736.52
2019-02-05T07:27:41.986Z,101748.73
2019-02-05T07:30:14.326Z,101758.73
2019-02-05T07:32:43.144Z,101760.05
2019-02-05T07:35:11.856Z,101758.73
2019-02-05T07:37:40.675Z,101760.05
2019-02-05T07:40:11.675Z,101767.03
2019-02-05T07:42:41.555Z,101774.89
2019-02-05T07:45:12.031Z,101775.78
2019-02-05T07:47:40.629Z,101780.17
2019-02-05T07:50:11.976Z,101783.19
2019-02-05T07:52:40.552Z,101780.61
2019-02-05T07:55:09.518Z,101783.23
2019-02-05T07:57:38.349Z,101788.87
2019-02-05T08:00:11.922Z,101792.80
2019-02-05T08:02:40.733Z,101792.34
2019-02-05T08:05:12.971Z,101791.48
2019-02-05T08:07:43.655Z,101793.20
2019-02-05T08:10:13.292Z,101794.11
2019-02-05T08:12:41.916Z,101800.19
2019-02-05T08:15:12.630Z,101808.49
2019-02-05T08:17:41.882Z,101812.87
2019-02-05T08:20:10.580Z,101809.40
2019-02-05T08:22:39.833Z,101810.30
2019-02-05T08:25:09.985Z,101814.22
2019-02-05T08:27:40.049Z,101810.75
2019-02-05T08:30:18.889Z,101812.92
2019-02-05T08:32:47.617Z,101813.36
2019-02-05T08:35:16.535Z,101820.31
2019-02-05T08:37:45.187Z,101815.53
2019-02-05T08:40:15.936Z,101824.24
2019-02-05T08:42:44.745Z,101814.23
2019-02-05T08:45:16.209Z,101815.53
2019-02-05T08:47:45.212Z,101820.77
2019-02-05T08:50:16.323Z,101819.02
2019-02-05T08:52:45.072Z,101819.01
2019-02-05T08:55:15.098Z,101822.53
2019-02-05T08:57:43.796Z,101823.42
2019-02-05T09:00:17.819Z,101824.73
2019-02-05T09:02:46.887Z,101836.06
2019-02-05T09:05:16.842Z,101840.89
2019-02-05T09:07:45.515Z,101840.48
2019-02-05T09:10:20.037Z,101840.03
2019-02-05T09:12:48.681Z,101837.87
2019-02-05T09:15:28.881Z,101839.59
2019-02-05T09:17:47.804Z,101847.03
2019-02-05T09:20:17.001Z,101840.94
2019-02-05T09:22:45.615Z,101844.45
2019-02-05T09:25:14.380Z,101847.52
2019-02-05T09:27:43.284Z,101853.61
2019-02-05T09:30:17.711Z,101854.05
2019-02-05T09:32:46.492Z,101852.78
2019-02-05T09:35:15.102Z,101854.12
2019-02-05T09:37:44.090Z,101856.70
2019-02-05T09:40:16.696Z,101862.36
2019-02-05T09:42:45.358Z,101867.16
2019-02-05T09:45:14.265Z,101862.81
2019-02-05T09:47:43.187Z,101871.97
2019-02-05T09:50:13.032Z,101870.70
2019-02-05T09:52:41.647Z,101869.80
2019-02-05T09:55:12.016Z,101863.22
2019-02-05T09:57:40.677Z,101861.05
2019-02-05T10:00:29.761Z,101867.19
2019-02-05T10:02:58.905Z,101872.42
2019-02-05T10:05:27.962Z,101868.05
2019-02-05T10:07:56.560Z,101875.04
2019-02-05T10:10:25.261Z,101873.73
2019-02-05T10:12:55.896Z,101887.23
2019-02-05T10:15:29.301Z,101880.69
2019-02-05T10:17:58.382Z,101882.90
2019-02-05T10:20:27.226Z,101883.72
2019-02-05T10:22:57.095Z,101882.90
2019-02-05T10:25:25.754Z,101890.72
2019-02-05T10:27:54.380Z,101889.86
2019-02-05T10:30:28.471Z,101884.20
2019-02-05T10:32:57.195Z,101891.17
2019-02-05T10:35:25.838Z,101896.86
2019-02-05T10:37:54.503Z,101896.41
2019-02-05T10:40:24.116Z,101897.27
2019-02-05T10:42:52.784Z,101903.41
2019-02-05T10:45:25.234Z,101897.75
2019-02-05T10:47:53.913Z,101902.09
2019-02-05T10:50:22.915Z,101899.92
2019-02-05T10:52:51.651Z,101892.92
2019-02-05T10:55:22.257Z,101894.23
2019-02-05T10:57:54.931Z,101892.06
2019-02-05T11:00:26.318Z,101890.31
2019-02-05T11:02:55.705Z,101889.89
2019-02-05T11:05:26.695Z,101892.52
2019-02-05T11:07:55.448Z,101887.72
2019-02-05T11:10:24.212Z,101888.17
2019-02-05T11:12:53.669Z,101892.55
2019-02-05T11:15:25.742Z,101896.05
2019-02-05T11:17:58.023Z,101887.73
2019-02-05T11:20:27.400Z,101897.80
2019-02-05T11:22:56.074Z,101896.02
2019-02-05T11:25:24.783Z,101897.33
2019-02-05T11:27:53.377Z,101885.99
2019-02-05T11:30:26.967Z,101891.20
2019-02-05T11:32:54.933Z,101882.93
2019-02-05T11:35:23.773Z,101880.34
2019-02-05T11:37:53.182Z,101889.03
2019-02-05T11:40:26.545Z,101888.61
2019-02-05T11:42:58.880Z,101886.00
2019-02-05T11:45:27.606Z,101889.06
2019-02-05T11:47:56.651Z,101879.45
2019-02-05T11:50:25.848Z,101877.69
2019-02-05T11:52:54.824Z,101876.80
2019-02-05T11:55:24.387Z,101878.55
2019-02-05T11:57:53.093Z,101877.25
2019-02-05T12:00:49.654Z,101881.17
2019-02-05T12:03:18.771Z,101887.30
2019-02-05T12:05:47.594Z,101889.03
2019-02-05T12:08:18.647Z,101885.13
2019-02-05T12:10:46.796Z,101887.30
2019-02-05T12:13:17.009Z,101888.61
2019-02-05T12:15:45.801Z,101889.06
2019-02-05T12:18:14.507Z,101885.13
2019-02-05T12:20:43.567Z,101875.09
2019-02-05T12:23:12.445Z,101877.69
2019-02-05T12:25:41.193Z,101886.00
2019-02-05T12:28:09.921Z,101882.93
2019-02-05T12:30:45.163Z,101889.48
2019-02-05T12:33:09.765Z,101888.61
2019-02-05T12:35:38.920Z,101884.66
2019-02-05T12:38:07.698Z,101885.52
2019-02-05T12:40:36.429Z,101887.27
2019-02-05T12:43:05.216Z,101882.03
2019-02-05T12:45:34.248Z,101887.27
2019-02-05T12:48:03.373Z,101880.73
2019-02-05T12:50:33.472Z,101870.70
2019-02-05T12:53:02.818Z,101876.83
2019-02-05T12:55:31.628Z,101869.83
2019-02-05T12:58:00.440Z,101863.30
2019-02-05T13:00:34.784Z,101862.86
2019-02-05T13:03:07.980Z,101868.52
2019-02-05T13:05:36.994Z,101873.31
2019-02-05T13:08:06.315Z,101870.27
2019-02-05T13:10:37.172Z,101868.09
2019-02-05T13:13:08.208Z,101869.80
2019-02-05T13:15:38.075Z,101871.56
2019-02-05T13:18:07.837Z,101873.77
2019-02-05T13:20:40.003Z,101871.59
2019-02-05T13:23:09.353Z,101872.45
2019-02-05T13:25:38.835Z,101873.73
2019-02-05T13:28:09.215Z,101875.96
2019-02-05T13:30:41.059Z,101873.78
2019-02-05T13:33:11.386Z,101868.09
2019-02-05T13:35:52.543Z,101882.08
2019-02-05T13:38:21.297Z,101884.70
2019-02-05T13:40:50.021Z,101889.03
2019-02-05T13:43:18.771Z,101896.03
2019-02-05T13:45:48.935Z,101901.27
2019-02-05T13:48:17.785Z,101905.64
2019-02-05T13:50:46.525Z,101907.36
2019-02-05T13:53:18.676Z,101909.13
2019-02-05T13:55:48.916Z,101909.57
2019-02-05T13:58:17.590Z,101911.77
2019-02-05T14:00:54.016Z,101909.16
2019-02-05T14:03:23.814Z,101918.77
2019-02-05T14:05:55.113Z,101916.12
2019-02-05T14:08:23.917Z,101919.64
2019-02-05T14:10:53.673Z,101916.56
2019-02-05T14:13:22.427Z,101918.77
2019-02-05T14:15:53.375Z,101926.19
2019-02-05T14:21:04.627Z,101921.84
2019-02-05T14:23:33.886Z,101924.87
2019-02-05T14:26:04.948Z,101927.07
2019-02-05T14:36:25.821Z,101930.56
2019-02-05T14:38:54.579Z,101918.33
2019-02-05T14:41:23.278Z,101922.70
2019-02-05T14:43:52.026Z,101921.83
2019-02-05T14:46:20.878Z,101925.32
2019-02-05T14:48:49.894Z,101931.42
2019-02-05T14:51:18.559Z,101928.80
2019-02-05T14:53:48.005Z,101929.22
2019-02-05T14:56:16.852Z,101932.29
2019-02-05T14:58:46.316Z,101931.84
2019-02-05T15:01:15.023Z,101929.63
2019-02-05T15:03:43.769Z,101929.67
2019-02-05T15:06:12.807Z,101930.11
2019-02-05T15:08:41.529Z,101934.91
2019-02-05T15:11:10.313Z,101937.52
2019-02-05T15:13:39.588Z,101932.73
2019-02-05T15:16:08.877Z,101931.84
2019-02-05T15:18:37.456Z,101927.46
2019-02-05T15:21:06.514Z,101928.77
2019-02-05T15:23:35.826Z,101932.70
2019-02-05T15:26:04.484Z,101930.08
2019-02-05T15:28:33.247Z,101932.29
2019-02-05T15:31:06.273Z,101930.98
2019-02-05T15:33:49.155Z,101939.70
2019-02-05T15:36:26.396Z,101929.22
2019-02-05T15:38:55.151Z,101937.94
2019-02-05T15:41:24.199Z,101937.08
2019-02-05T15:43:53.075Z,101943.17
2019-02-05T15:46:22.290Z,101939.70
2019-02-05T15:48:53.404Z,101941.42
2019-02-05T15:51:22.324Z,101944.90
2019-02-05T15:53:51.111Z,101942.73
2019-02-05T15:56:19.934Z,101945.80
2019-02-05T15:58:48.629Z,101941.01
2019-02-05T16:01:17.276Z,101950.59
2019-02-05T16:03:46.234Z,101944.04
2019-02-05T16:06:14.965Z,101945.80
2019-02-05T16:08:43.777Z,101949.28
2019-02-05T16:11:12.510Z,101944.91
2019-02-05T16:13:41.276Z,101944.90
2019-02-05T16:16:10.261Z,101940.52
2019-02-05T16:18:39.258Z,101944.90
2019-02-05T16:21:08.082Z,101938.77
2019-02-05T16:23:36.761Z,101942.28
2019-02-05T16:26:05.481Z,101938.76
2019-02-05T16:28:34.231Z,101940.97
2019-02-05T16:31:02.982Z,101937.48
2019-02-05T16:33:31.767Z,101939.21
2019-02-05T16:36:04.240Z,101936.59
2019-02-05T16:38:33.530Z,101943.14
2019-02-05T16:41:02.448Z,101937.00
2019-02-05T16:43:31.228Z,101940.48
2019-02-05T16:45:59.916Z,101939.62
2019-02-05T16:48:28.645Z,101944.44
2019-02-05T16:50:57.537Z,101950.09
2019-02-05T16:53:26.298Z,101951.41
2019-02-05T16:55:55.068Z,101947.92
2019-02-05T16:58:23.791Z,101952.71
2019-02-05T17:00:52.662Z,101957.08
2019-02-05T17:03:54.352Z,101956.64
2019-02-05T17:06:23.229Z,101952.25
2019-02-05T17:08:53.684Z,101954.01
2019-02-05T17:11:22.279Z,101954.87
2019-02-05T17:13:50.788Z,101957.48
2019-02-05T17:16:19.337Z,101961.02
2019-02-05T17:18:48.403Z,101954.88
2019-02-05T17:21:17.759Z,101956.19
2019-02-05T17:23:47.217Z,101957.94
2019-02-05T17:26:16.015Z,101953.97
2019-02-05T17:28:44.672Z,101954.88
2019-02-05T17:31:13.364Z,101963.58
2019-02-05T17:33:42.049Z,101960.50
2019-02-05T17:36:10.697Z,101967.91
2019-02-05T17:38:39.357Z,101970.13
2019-02-05T17:41:08.073Z,101965.34
2019-02-05T17:43:36.786Z,101965.79
2019-02-05T17:46:07.019Z,101961.41
2019-02-05T17:48:35.769Z,101956.59
2019-02-05T17:51:04.468Z,101961.86
2019-02-05T17:53:33.399Z,101958.34
2019-02-05T17:56:02.098Z,101950.03
2019-02-05T17:58:31.984Z,101950.48
2019-02-05T18:01:05.544Z,101956.17
2019-02-05T18:03:34.619Z,101955.27
2019-02-05T18:06:03.270Z,101953.96
2019-02-05T18:08:33.339Z,101953.52
2019-02-05T18:11:01.994Z,101950.08
2019-02-05T18:13:30.687Z,101959.66
2019-02-05T18:16:02.480Z,101962.72
2019-02-05T18:18:31.186Z,101966.19
2019-02-05T18:20:59.831Z,101965.73
2019-02-05T18:23:28.497Z,101966.19
2019-02-05T18:25:57.176Z,101963.12
2019-02-05T18:28:26.137Z,101966.59
2019-02-05T18:30:55.230Z,101964.78
2019-02-05T18:33:24.052Z,101966.98
2019-02-05T18:35:52.782Z,101970.47
2019-02-05T18:38:21.490Z,101970.91
2019-02-05T18:40:50.137Z,101966.54
2019-02-05T18:43:18.821Z,101961.30
2019-02-05T18:45:47.598Z,101965.66
2019-02-05T18:48:16.225Z,101968.70
2019-02-05T18:50:44.857Z,101960.91
2019-02-05T18:53:13.530Z,101961.36
2019-02-05T18:55:42.316Z,101960.91
2019-02-05T18:58:11.038Z,101964.03
2019-02-05T19:00:40.922Z,101962.27
2019-02-05T19:03:15.536Z,101957.48
2019-02-05T19:05:41.516Z,101955.27
2019-02-05T19:08:10.227Z,101954.36
2019-02-05T19:10:38.942Z,101951.30
2019-02-05T19:13:07.640Z,101951.29
2019-02-05T19:15:36.905Z,101952.59
2019-02-05T19:18:06.557Z,101953.45
2019-02-05T19:20:35.256Z,101953.45
2019-02-05T19:23:03.996Z,101947.34
2019-02-05T19:25:49.127Z,101941.22
2019-02-05T19:28:23.796Z,101946.45
2019-02-05T19:30:53.877Z,101940.80
2019-02-05T19:33:27.086Z,101948.20
2019-02-05T19:35:53.083Z,101946.89
2019-02-05T19:38:21.747Z,101946.44
2019-02-05T19:40:57.586Z,101949.05
2019-02-05T19:43:23.191Z,101949.91
2019-02-05T19:46:09.348Z,101947.73
2019-02-05T19:49:00.416Z,101945.97
2019-02-05T19:51:29.101Z,101953.82
2019-02-05T19:53:57.855Z,101944.20
2019-02-05T19:56:37.696Z,101951.20
2019-02-05T19:58:56.954Z,101949.84
2019-02-05T20:01:25.686Z,101951.16
2019-02-05T20:03:54.374Z,101945.52
2019-02-05T20:06:23.053Z,101946.38
2019-02-05T20:08:51.861Z,101939.88
2019-02-05T20:11:20.798Z,101945.97
2019-02-05T20:13:49.616Z,101942.45
2019-02-05T20:16:18.289Z,101939.84
2019-02-05T20:18:47.010Z,101942.43
2019-02-05T20:21:15.661Z,101945.45
2019-02-05T20:23:44.382Z,101940.22
2019-02-05T20:26:20.337Z,101945.43
2019-02-05T20:28:49.082Z,101950.20
2019-02-05T20:31:17.741Z,101951.08
2019-02-05T20:33:50.029Z,101954.55
2019-02-05T20:36:16.910Z,101958.91
2019-02-05T20:38:45.713Z,101963.29
2019-02-05T20:41:14.649Z,101956.75
2019-02-05T20:43:44.501Z,101961.98
2019-02-05T20:46:13.254Z,101969.84
2019-02-05T20:48:41.929Z,101975.07
2019-02-05T20:51:10.708Z,101973.31
2019-02-05T20:53:39.578Z,101968.05
2019-02-05T20:56:08.378Z,101961.52
2019-02-05T20:58:37.054Z,101971.52
2019-02-05T21:01:06.300Z,101975.44
2019-02-05T21:03:34.967Z,101977.13
2019-02-05T21:06:03.749Z,101972.30
2019-02-05T21:08:32.531Z,101970.58
2019-02-05T21:11:01.239Z,101976.22
2019-02-05T21:13:30.689Z,101979.72
2019-02-05T21:15:59.750Z,101979.27
2019-02-05T21:18:28.480Z,101980.58
2019-02-05T21:20:57.200Z,101980.59
2019-02-05T21:23:25.921Z,101977.53
2019-02-05T21:25:54.709Z,101976.30
2019-02-05T21:28:25.716Z,101974.62
2019-02-05T21:30:54.408Z,101965.89
2019-02-05T21:33:23.432Z,101962.36
2019-02-05T21:35:52.212Z,101966.69
2019-02-05T21:38:20.866Z,101967.12
2019-02-05T21:40:50.394Z,101963.61
2019-02-05T21:43:19.144Z,101959.27
2019-02-05T21:45:47.943Z,101963.67
2019-02-05T21:48:16.684Z,101960.98
2019-02-05T21:50:45.666Z,101959.64
2019-02-05T21:53:14.351Z,101957.41
2019-02-05T21:55:43.049Z,101960.02
2019-02-05T21:58:12.562Z,101954.32
2019-02-05T22:00:42.392Z,101953.41
2019-02-05T22:03:11.089Z,101956.85
2019-02-05T22:05:40.343Z,101956.84
2019-02-05T22:08:09.115Z,101960.78
2019-02-05T22:10:37.847Z,101955.54
2019-02-05T22:13:07.258Z,101951.17
2019-02-05T22:15:36.094Z,101958.55
2019-02-05T22:18:04.884Z,101949.39
2019-02-05T22:20:33.587Z,101952.84
2019-02-05T22:23:02.330Z,101952.84
2019-02-05T22:25:31.339Z,101954.12
2019-02-05T22:28:00.069Z,101952.80
2019-02-05T22:30:30.666Z,101952.73
2019-02-05T22:32:59.471Z,101949.70
2019-02-05T22:35:29.264Z,101953.56
2019-02-05T22:37:57.959Z,101948.39
2019-02-05T22:40:27.206Z,101947.59
2019-02-05T22:42:55.968Z,101946.84
2019-02-05T22:45:26.038Z,101945.00
2019-02-05T22:47:54.782Z,101951.53
2019-02-05T22:50:25.117Z,101942.73
2019-02-05T22:52:54.030Z,101944.41
2019-02-05T22:55:22.779Z,101931.69
2019-02-05T22:57:51.454Z,101944.28
2019-02-05T23:00:36.319Z,101937.16
2019-02-05T23:03:05.055Z,101944.88
2019-02-05T23:06:30.080Z,101950.45
2019-02-05T23:09:03.289Z,101952.48
2019-02-05T23:12:11.256Z,101938.30
2019-02-05T23:14:39.948Z,101933.42
2019-02-05T23:17:08.687Z,101931.14
2019-02-05T23:19:39.952Z,101931.41
2019-02-05T23:22:08.652Z,101938.48
2019-02-05T23:24:37.293Z,101946.55
2019-02-05T23:27:06.065Z,101941.63
2019-02-05T23:29:34.770Z,101939.05
2019-02-05T23:32:03.618Z,101929.48
2019-02-05T23:34:32.222Z,101933.77
2019-02-05T23:37:00.942Z,101941.89
2019-02-05T23:39:29.632Z,101938.67
2019-02-05T23:41:58.377Z,101933.42
2019-02-05T23:44:27.111Z,101932.62
2019-02-05T23:46:56.256Z,101944.33
2019-02-05T23:49:24.925Z,101941.77
2019-02-05T23:51:53.672Z,101945.21
2019-02-05T23:54:22.397Z,101938.27
2019-02-05T23:56:51.088Z,101943.01
2019-02-05T23:59:19.754Z,101940.27
